createdAt,value
2019-03-27T00:02:18.996Z,34.15
2019-03-27T00:04:50.324Z,34.18
2019-03-27T00:07:22.852Z,31.77
2019-03-27T00:09:54.167Z,39.08
2019-03-27T00:12:25.428Z,38.48
2019-03-27T00:14:56.769Z,185.45
2019-03-27T00:17:28.417Z,212.23
2019-03-27T00:19:59.823Z,124.22
2019-03-27T00:22:31.371Z,83.22
2019-03-27T00:25:02.967Z,75.52
2019-03-27T00:27:34.295Z,43.83
2019-03-27T00:30:09.177Z,30.62
2019-03-27T00:32:40.506Z,32.60
2019-03-27T00:35:12.954Z,33.35
2019-03-27T00:37:44.340Z,29.23
2019-03-27T00:40:15.620Z,26.73
2019-03-27T00:42:46.945Z,26.07
2019-03-27T00:45:26.419Z,27.07
2019-03-27T00:47:51.553Z,25.08
2019-03-27T00:50:22.960Z,23.92
2019-03-27T00:52:54.568Z,23.35
2019-03-27T00:55:25.875Z,23.75
2019-03-27T00:57:57.575Z,24.95
2019-03-27T01:00:41.417Z,22.52
2019-03-27T01:03:12.816Z,24.45
2019-03-27T01:05:44.208Z,25.37
2019-03-27T01:08:15.784Z,24.92
2019-03-27T01:10:47.527Z,24.50
2019-03-27T01:13:18.990Z,27.40
2019-03-27T01:15:50.928Z,29.12
2019-03-27T01:18:22.265Z,29.80
2019-03-27T01:20:53.593Z,28.10
2019-03-27T01:23:24.878Z,29.30
2019-03-27T01:25:56.181Z,31.05
2019-03-27T01:28:27.491Z,32.48
2019-03-27T01:30:58.944Z,30.27
2019-03-27T01:33:30.249Z,31.68
2019-03-27T01:36:01.649Z,32.75
2019-03-27T01:38:33.148Z,32.28
2019-03-27T01:41:04.604Z,29.95
2019-03-27T01:43:35.818Z,31.27
2019-03-27T01:46:07.177Z,31.52
2019-03-27T01:48:38.547Z,31.42
2019-03-27T01:51:09.793Z,33.63
2019-03-27T01:53:41.120Z,32.40
2019-03-27T01:56:15.881Z,33.63
2019-03-27T01:58:50.415Z,35.55
2019-03-27T02:01:21.870Z,35.28
2019-03-27T02:03:53.335Z,34.67
2019-03-27T02:06:24.954Z,35.65
2019-03-27T02:08:56.695Z,37.75
2019-03-27T02:11:28.053Z,37.85
2019-03-27T02:14:00.515Z,40.17
2019-03-27T02:16:31.906Z,41.77
2019-03-27T02:19:03.624Z,40.50
2019-03-27T02:21:34.910Z,41.73
2019-03-27T02:24:06.341Z,37.05
2019-03-27T02:26:37.815Z,34.35
2019-03-27T02:29:09.358Z,30.60
2019-03-27T02:31:40.909Z,33.35
2019-03-27T02:34:13.570Z,30.82
2019-03-27T02:36:45.303Z,32.55
2019-03-27T02:39:16.620Z,31.60
2019-03-27T02:41:48.004Z,30.68
2019-03-27T02:44:19.417Z,29.42
2019-03-27T02:46:50.746Z,29.77
2019-03-27T02:49:22.210Z,28.75
2019-03-27T02:51:53.665Z,30.68
2019-03-27T02:54:25.229Z,29.45
2019-03-27T02:56:56.627Z,28.85
2019-03-27T02:59:27.944Z,29.65
2019-03-27T03:01:59.255Z,30.50
2019-03-27T03:04:31.165Z,29.70
2019-03-27T03:07:02.521Z,28.90
2019-03-27T03:09:33.996Z,27.85
2019-03-27T03:12:05.296Z,28.25
2019-03-27T03:14:36.672Z,27.45
2019-03-27T03:17:08.412Z,31.37
2019-03-27T03:19:39.794Z,29.82
2019-03-27T03:22:11.083Z,34.10
2019-03-27T03:24:42.334Z,33.70
2019-03-27T03:27:14.694Z,33.67
2019-03-27T03:29:47.446Z,33.38
2019-03-27T03:32:19.850Z,34.67
2019-03-27T03:34:51.481Z,37.28
2019-03-27T03:37:22.871Z,40.10
2019-03-27T03:39:54.228Z,46.45
2019-03-27T03:42:25.555Z,47.30
2019-03-27T03:44:57.448Z,52.75
2019-03-27T03:47:28.943Z,55.75
2019-03-27T03:50:01.200Z,56.53
2019-03-27T03:52:32.535Z,56.95
2019-03-27T03:55:04.355Z,59.55
2019-03-27T03:57:37.131Z,57.15
2019-03-27T04:00:08.875Z,57.08
2019-03-27T04:02:40.479Z,59.27
2019-03-27T04:05:16.114Z,57.33
2019-03-27T04:07:47.585Z,57.13
2019-03-27T04:10:19.387Z,58.42
2019-03-27T04:12:50.864Z,57.10
2019-03-27T04:15:22.285Z,55.10
2019-03-27T04:17:53.957Z,55.28
2019-03-27T04:20:26.292Z,51.83
2019-03-27T04:22:57.601Z,51.63
2019-03-27T04:26:06.427Z,51.70
2019-03-27T04:28:05.603Z,53.58
2019-03-27T04:30:37.007Z,49.77
2019-03-27T04:33:12.103Z,50.33
2019-03-27T04:35:43.662Z,46.33
2019-03-27T04:38:14.962Z,45.23
2019-03-27T04:40:46.330Z,42.83
2019-03-27T04:43:17.887Z,42.50
2019-03-27T04:45:49.437Z,42.15
2019-03-27T04:48:20.963Z,42.25
2019-03-27T04:50:53.309Z,45.85
2019-03-27T04:53:24.680Z,43.15
2019-03-27T04:55:56.078Z,46.35
2019-03-27T04:58:29.940Z,43.52
2019-03-27T05:01:02.470Z,43.70
2019-03-27T05:03:34.156Z,44.15
2019-03-27T05:06:05.746Z,43.70
2019-03-27T05:08:37.049Z,42.50
2019-03-27T05:11:08.589Z,46.95
2019-03-27T05:13:40.165Z,48.70
2019-03-27T05:16:11.438Z,45.25
2019-03-27T05:18:43.147Z,46.50
2019-03-27T05:21:14.821Z,46.60
2019-03-27T05:23:46.654Z,51.00
2019-03-27T05:26:18.252Z,46.42
2019-03-27T05:28:49.556Z,46.75
2019-03-27T05:31:20.978Z,48.08
2019-03-27T05:33:52.341Z,43.70
2019-03-27T05:36:23.954Z,55.40
2019-03-27T05:38:55.248Z,56.53
2019-03-27T05:41:26.548Z,56.77
2019-03-27T05:43:58.117Z,50.20
2019-03-27T05:46:29.414Z,44.20
2019-03-27T05:49:00.916Z,55.67
2019-03-27T05:51:32.248Z,59.45
2019-03-27T05:54:03.868Z,50.95
2019-03-27T05:56:36.179Z,62.55
2019-03-27T05:59:07.501Z,47.78
2019-03-27T06:01:38.925Z,43.48
2019-03-27T06:04:10.257Z,40.83
2019-03-27T06:06:41.704Z,39.00
2019-03-27T06:09:13.122Z,39.33
2019-03-27T06:11:44.491Z,41.10
2019-03-27T06:14:15.787Z,86.63
2019-03-27T06:16:48.135Z,46.02
2019-03-27T06:19:19.523Z,43.50
2019-03-27T06:21:50.835Z,54.80
2019-03-27T06:24:22.335Z,158.50
2019-03-27T06:26:54.754Z,46.70
2019-03-27T06:29:26.246Z,45.45
2019-03-27T06:31:57.614Z,46.53
2019-03-27T06:34:29.127Z,73.52
2019-03-27T06:37:00.502Z,74.90
2019-03-27T06:39:31.875Z,52.05
2019-03-27T06:42:03.230Z,34.40
2019-03-27T06:44:35.540Z,24.70
2019-03-27T06:47:06.914Z,26.37
2019-03-27T06:49:38.682Z,16.32
2019-03-27T06:52:10.043Z,16.50
2019-03-27T06:54:41.494Z,15.23
2019-03-27T06:57:12.980Z,18.75
2019-03-27T06:59:44.370Z,36.28
2019-03-27T07:02:17.693Z,38.80
2019-03-27T07:04:49.295Z,34.27
2019-03-27T07:07:21.068Z,36.28
2019-03-27T07:09:52.464Z,23.30
2019-03-27T07:12:23.861Z,24.15
2019-03-27T07:14:55.350Z,11.20
2019-03-27T07:17:26.799Z,5.22
2019-03-27T07:19:58.143Z,4.95
2019-03-27T07:22:29.964Z,4.45
2019-03-27T07:25:06.884Z,4.62
2019-03-27T07:27:38.132Z,5.25
2019-03-27T07:30:10.729Z,4.08
2019-03-27T07:32:42.496Z,4.67
2019-03-27T07:35:13.909Z,4.83
2019-03-27T07:37:50.777Z,4.70
2019-03-27T07:40:25.486Z,4.92
2019-03-27T07:43:01.354Z,4.15
2019-03-27T07:48:53.189Z,4.90
2019-03-27T07:51:15.887Z,5.97
2019-03-27T07:53:47.834Z,6.20
2019-03-27T07:56:19.367Z,5.25
2019-03-27T07:58:51.761Z,4.83
2019-03-27T08:01:28.340Z,4.15
2019-03-27T08:04:01.097Z,5.53
2019-03-27T08:06:37.471Z,5.20
2019-03-27T08:09:08.988Z,5.20
2019-03-27T08:11:42.443Z,4.35
2019-03-27T08:14:13.869Z,4.33
2019-03-27T08:16:45.294Z,3.75
2019-03-27T08:19:16.726Z,4.45
2019-03-27T08:21:48.307Z,4.87
2019-03-27T08:24:19.749Z,5.17
2019-03-27T08:26:51.367Z,5.17
2019-03-27T08:29:22.901Z,5.30
2019-03-27T08:31:55.319Z,6.62
2019-03-27T08:34:27.158Z,5.87
2019-03-27T08:36:58.533Z,5.95
2019-03-27T08:39:31.249Z,5.62
2019-03-27T08:42:03.487Z,5.08
2019-03-27T08:44:35.297Z,5.05
2019-03-27T08:47:06.923Z,5.20
2019-03-27T08:49:38.340Z,4.28
2019-03-27T08:52:11.695Z,4.55
2019-03-27T08:54:42.925Z,5.15
2019-03-27T08:57:15.520Z,6.15
2019-03-27T08:59:46.773Z,4.60
2019-03-27T09:02:18.019Z,4.90
2019-03-27T09:04:51.365Z,5.30
2019-03-27T09:07:23.797Z,5.30
2019-03-27T09:09:55.499Z,4.83
2019-03-27T09:12:26.865Z,5.33
2019-03-27T09:14:58.188Z,5.12
2019-03-27T09:17:29.450Z,6.10
2019-03-27T09:20:01.920Z,4.78
2019-03-27T09:22:33.136Z,5.70
2019-03-27T09:25:05.872Z,5.92
2019-03-27T09:27:37.383Z,5.95
2019-03-27T09:30:13.232Z,5.80
2019-03-27T09:32:44.948Z,5.65
2019-03-27T09:35:18.279Z,6.53
2019-03-27T09:37:50.712Z,5.78
2019-03-27T09:40:21.969Z,5.35
2019-03-27T09:42:54.002Z,5.10
2019-03-27T09:45:25.328Z,5.42
2019-03-27T09:47:56.884Z,5.67
2019-03-27T09:50:29.281Z,5.85
2019-03-27T09:53:00.730Z,5.83
2019-03-27T09:55:32.393Z,5.85
2019-03-27T09:58:03.743Z,5.87
2019-03-27T10:00:55.442Z,6.00
2019-03-27T10:03:26.951Z,4.90
2019-03-27T10:05:58.795Z,6.05
2019-03-27T10:08:30.368Z,5.17
2019-03-27T10:11:02.072Z,5.40
2019-03-27T10:13:34.490Z,4.28
2019-03-27T10:16:05.855Z,4.92
2019-03-27T10:18:37.163Z,4.70
2019-03-27T10:21:08.647Z,4.75
2019-03-27T10:23:43.567Z,5.50
2019-03-27T10:28:45.536Z,6.05
2019-03-27T10:31:17.157Z,6.25
2019-03-27T10:33:48.592Z,6.50
2019-03-27T10:36:20.133Z,6.97
2019-03-27T10:38:51.568Z,5.20
2019-03-27T10:41:22.808Z,5.40
2019-03-27T10:43:54.160Z,5.35
2019-03-27T10:46:25.388Z,6.58
2019-03-27T10:48:59.872Z,7.53
2019-03-27T10:51:31.303Z,6.80
2019-03-27T10:54:02.654Z,6.95
2019-03-27T10:56:35.138Z,7.35
2019-03-27T10:59:06.558Z,7.22
2019-03-27T11:01:41.757Z,7.67
2019-03-27T11:04:13.296Z,7.05
2019-03-27T11:06:48.194Z,6.08
2019-03-27T11:09:19.848Z,6.00
2019-03-27T11:11:51.708Z,7.08
2019-03-27T11:14:36.886Z,6.40
2019-03-27T11:16:56.439Z,7.10
2019-03-27T11:19:33.579Z,6.97
2019-03-27T11:22:05.041Z,8.35
2019-03-27T11:24:36.686Z,7.47
2019-03-27T11:27:08.208Z,7.78
2019-03-27T11:29:39.620Z,7.97
2019-03-27T11:32:11.086Z,7.22
2019-03-27T11:34:42.591Z,6.60
2019-03-27T11:37:17.758Z,7.45
2019-03-27T11:42:19.831Z,7.87
2019-03-27T11:44:51.400Z,9.08
2019-03-27T11:47:24.732Z,8.70
2019-03-27T11:50:00.480Z,8.78
2019-03-27T11:52:38.704Z,9.05
2019-03-27T11:55:10.617Z,8.90
2019-03-27T11:57:42.121Z,8.63
2019-03-27T12:00:13.719Z,8.78
2019-03-27T12:02:47.078Z,8.90
2019-03-27T12:05:20.250Z,10.20
2019-03-27T12:07:51.822Z,10.28
2019-03-27T12:10:23.209Z,9.63
2019-03-27T12:12:54.524Z,9.55
2019-03-27T12:15:29.177Z,9.70
2019-03-27T12:18:00.484Z,8.83
2019-03-27T12:20:34.858Z,9.95
2019-03-27T12:23:06.191Z,9.68
2019-03-27T12:25:37.606Z,10.30
2019-03-27T12:28:17.707Z,16.15
2019-03-27T12:30:50.098Z,17.35
2019-03-27T12:33:22.356Z,18.98
2019-03-27T12:35:54.366Z,16.45
2019-03-27T12:38:27.139Z,16.80
2019-03-27T12:41:00.710Z,19.30
2019-03-27T12:43:32.262Z,22.20
2019-03-27T12:46:09.540Z,24.60
2019-03-27T12:48:41.750Z,39.38
2019-03-27T12:51:13.557Z,56.80
2019-03-27T12:53:45.137Z,44.53
2019-03-27T12:56:16.766Z,46.13
2019-03-27T12:58:53.501Z,30.40
2019-03-27T13:01:24.883Z,25.62
2019-03-27T13:03:59.702Z,24.75
2019-03-27T13:06:31.119Z,19.20
2019-03-27T13:09:02.807Z,18.92
2019-03-27T13:11:36.852Z,19.10
2019-03-27T13:14:09.965Z,18.45
2019-03-27T13:16:41.550Z,18.05
2019-03-27T13:19:14.691Z,19.77
2019-03-27T13:21:47.397Z,17.67
2019-03-27T13:24:19.000Z,17.82
2019-03-27T13:26:50.408Z,18.55
2019-03-27T13:29:21.889Z,16.30
2019-03-27T13:31:54.409Z,17.92
2019-03-27T13:34:26.280Z,17.37
2019-03-27T13:36:57.740Z,17.70
2019-03-27T13:39:29.117Z,22.50
2019-03-27T13:42:03.522Z,20.70
2019-03-27T13:44:37.702Z,18.15
2019-03-27T13:47:08.723Z,18.92
2019-03-27T13:49:40.715Z,20.32
2019-03-27T13:52:12.165Z,20.27
2019-03-27T13:54:45.685Z,18.48
2019-03-27T13:57:17.259Z,14.50
2019-03-27T13:59:48.869Z,19.23
2019-03-27T14:02:21.268Z,18.75
2019-03-27T14:04:52.717Z,18.32
2019-03-27T14:07:24.068Z,17.82
2019-03-27T14:09:57.212Z,21.77
2019-03-27T14:12:29.116Z,20.97
2019-03-27T14:15:00.801Z,28.05
2019-03-27T14:17:32.268Z,30.50
2019-03-27T14:20:04.289Z,37.25
2019-03-27T14:22:35.886Z,37.17
2019-03-27T14:25:08.943Z,35.90
2019-03-27T14:27:45.216Z,41.02
2019-03-27T14:30:18.598Z,46.45
2019-03-27T14:32:51.008Z,39.10
2019-03-27T14:35:22.562Z,36.53
2019-03-27T14:37:54.126Z,41.02
2019-03-27T14:40:27.204Z,40.90
2019-03-27T14:42:58.703Z,38.95
2019-03-27T14:45:31.198Z,52.30
2019-03-27T14:48:05.440Z,52.23
2019-03-27T14:50:37.062Z,59.53
2019-03-27T14:53:09.972Z,56.10
2019-03-27T14:55:42.658Z,62.27
2019-03-27T14:58:15.375Z,67.40
2019-03-27T15:00:46.691Z,71.05
2019-03-27T15:03:20.380Z,75.67
2019-03-27T15:08:27.789Z,71.25
2019-03-27T15:10:59.221Z,68.30
2019-03-27T15:13:32.081Z,70.75
2019-03-27T15:16:04.915Z,66.65
2019-03-27T15:18:37.348Z,68.97
2019-03-27T15:21:09.818Z,68.05
2019-03-27T15:23:41.687Z,65.42
2019-03-27T15:26:20.740Z,63.50
2019-03-27T15:28:52.334Z,60.98
2019-03-27T15:31:25.688Z,56.53
2019-03-27T15:33:57.111Z,53.00
2019-03-27T15:36:28.647Z,53.02
2019-03-27T15:39:02.098Z,49.58
2019-03-27T15:41:34.597Z,48.60
2019-03-27T15:44:08.444Z,45.33
2019-03-27T15:46:40.061Z,39.45
2019-03-27T15:49:11.497Z,37.17
2019-03-27T15:51:47.368Z,32.28
2019-03-27T15:54:18.959Z,30.55
2019-03-27T15:56:50.779Z,27.77
2019-03-27T15:59:22.431Z,25.55
2019-03-27T16:01:54.121Z,22.52
2019-03-27T16:04:25.609Z,22.77
2019-03-27T16:06:57.080Z,18.23
2019-03-27T16:09:40.457Z,21.48
2019-03-27T16:12:08.836Z,21.20
2019-03-27T16:14:40.467Z,25.32
2019-03-27T16:17:13.655Z,24.37
2019-03-27T16:19:45.593Z,23.98
2019-03-27T16:22:16.942Z,23.83
2019-03-27T16:27:38.989Z,19.57
2019-03-27T16:30:10.556Z,19.23
2019-03-27T16:32:43.037Z,19.40
2019-03-27T16:35:14.435Z,18.73
2019-03-27T16:37:45.839Z,19.98
2019-03-27T16:40:20.419Z,18.42
2019-03-27T16:42:51.855Z,18.42
2019-03-27T16:45:23.212Z,16.35
2019-03-27T16:47:56.194Z,14.78
2019-03-27T16:50:27.653Z,16.00
2019-03-27T16:53:03.695Z,15.72
2019-03-27T16:55:32.236Z,16.30
2019-03-27T16:58:04.025Z,15.50
2019-03-27T17:00:37.914Z,16.23
2019-03-27T17:03:09.389Z,15.20
2019-03-27T17:05:53.349Z,16.52
2019-03-27T17:08:18.334Z,15.40
2019-03-27T17:10:52.964Z,15.25
2019-03-27T17:13:28.812Z,15.90
2019-03-27T17:16:19.378Z,14.43
2019-03-27T17:18:57.513Z,17.73
2019-03-27T17:21:29.177Z,21.10
2019-03-27T17:24:00.978Z,19.12
2019-03-27T17:26:32.748Z,21.15
2019-03-27T17:29:04.158Z,20.85
2019-03-27T17:31:38.576Z,21.05
2019-03-27T17:34:17.120Z,20.80
2019-03-27T17:36:55.369Z,21.95
2019-03-27T17:39:30.599Z,25.65
2019-03-27T17:42:08.934Z,29.00
2019-03-27T17:44:41.858Z,29.42
2019-03-27T17:47:21.111Z,34.58
2019-03-27T17:49:52.812Z,33.92
2019-03-27T17:52:26.607Z,38.23
2019-03-27T17:54:59.720Z,38.70
2019-03-27T17:57:31.050Z,38.98
2019-03-27T18:00:02.445Z,39.78
2019-03-27T18:02:36.563Z,46.85
2019-03-27T18:05:10.144Z,43.63
2019-03-27T18:07:42.111Z,42.70
2019-03-27T18:10:13.514Z,43.55
2019-03-27T18:12:45.251Z,43.85
2019-03-27T18:15:17.815Z,40.08
2019-03-27T18:17:49.470Z,41.00
2019-03-27T18:20:21.978Z,35.98
2019-03-27T18:22:53.742Z,39.05
2019-03-27T18:25:25.373Z,37.48
2019-03-27T18:27:58.571Z,35.25
2019-03-27T18:30:31.871Z,35.03
2019-03-27T18:33:06.276Z,38.73
2019-03-27T18:35:37.719Z,43.17
2019-03-27T18:38:09.449Z,48.02
2019-03-27T18:40:41.132Z,46.58
2019-03-27T18:43:14.050Z,41.48
2019-03-27T18:45:45.679Z,40.67
2019-03-27T18:48:17.118Z,36.23
2019-03-27T18:50:48.739Z,30.57
2019-03-27T18:53:20.282Z,28.55
2019-03-27T18:55:51.845Z,24.18
2019-03-27T18:58:23.215Z,21.57
2019-03-27T19:00:55.907Z,21.52
2019-03-27T19:03:27.639Z,20.40
2019-03-27T19:05:59.255Z,18.70
2019-03-27T19:08:31.012Z,19.65
2019-03-27T19:11:02.766Z,18.40
2019-03-27T19:13:34.152Z,17.27
2019-03-27T19:16:06.002Z,18.85
2019-03-27T19:18:38.023Z,16.48
2019-03-27T19:21:13.928Z,15.70
2019-03-27T19:26:19.552Z,19.35
2019-03-27T19:28:53.865Z,19.52
2019-03-27T19:31:26.612Z,23.62
2019-03-27T19:33:59.490Z,23.30
2019-03-27T19:36:30.892Z,27.17
2019-03-27T19:39:02.818Z,24.12
2019-03-27T19:41:36.084Z,24.50
2019-03-27T19:44:07.668Z,24.47
2019-03-27T19:46:40.154Z,26.70
2019-03-27T19:49:11.597Z,26.05
2019-03-27T19:51:43.229Z,28.02
2019-03-27T19:54:26.414Z,29.20
2019-03-27T19:56:48.085Z,30.77
2019-03-27T19:59:19.733Z,30.77
2019-03-27T20:01:51.790Z,32.35
2019-03-27T20:04:23.392Z,31.10
2019-03-27T20:06:54.694Z,31.27
2019-03-27T20:09:27.101Z,30.37
2019-03-27T20:11:58.922Z,31.82
2019-03-27T20:14:31.622Z,31.25
2019-03-27T20:17:02.990Z,31.05
2019-03-27T20:19:35.451Z,31.25
2019-03-27T20:22:06.845Z,30.70
2019-03-27T20:24:41.359Z,31.07
2019-03-27T20:27:13.030Z,32.53
2019-03-27T20:29:46.541Z,33.02
2019-03-27T20:32:17.974Z,31.00
2019-03-27T20:34:49.735Z,30.97
2019-03-27T20:37:21.180Z,29.07
2019-03-27T20:39:52.772Z,30.57
2019-03-27T20:42:25.133Z,29.98
2019-03-27T20:44:56.890Z,28.60
2019-03-27T20:47:28.598Z,32.17
2019-03-27T20:49:59.946Z,30.88
2019-03-27T20:52:32.267Z,29.75
2019-03-27T20:55:05.308Z,28.85
2019-03-27T20:57:36.684Z,28.23
2019-03-27T21:00:07.988Z,29.30
2019-03-27T21:02:39.508Z,30.27
2019-03-27T21:05:10.735Z,28.05
2019-03-27T21:07:41.983Z,27.27
2019-03-27T21:10:13.328Z,27.07
2019-03-27T21:12:44.677Z,28.25
2019-03-27T21:15:15.905Z,28.92
2019-03-27T21:17:47.233Z,28.05
2019-03-27T21:20:18.553Z,25.70
2019-03-27T21:22:49.822Z,26.62
2019-03-27T21:25:21.103Z,24.63
2019-03-27T21:27:52.479Z,24.60
2019-03-27T21:30:23.805Z,24.25
2019-03-27T21:32:55.164Z,23.25
2019-03-27T21:35:26.530Z,23.30
2019-03-27T21:37:57.874Z,23.12
2019-03-27T21:40:29.339Z,20.57
2019-03-27T21:43:00.728Z,21.90
2019-03-27T21:45:33.183Z,22.87
2019-03-27T21:48:04.657Z,21.65
2019-03-27T21:50:39.731Z,21.23
2019-03-27T21:53:11.261Z,21.00
2019-03-27T21:55:43.333Z,21.80
2019-03-27T21:58:20.681Z,22.73
2019-03-27T22:00:55.468Z,23.05
2019-03-27T22:03:27.773Z,22.25
2019-03-27T22:05:59.145Z,22.80
2019-03-27T22:08:30.485Z,24.27
2019-03-27T22:11:04.176Z,25.17
2019-03-27T22:13:35.832Z,26.65
2019-03-27T22:16:07.216Z,25.75
2019-03-27T22:18:38.678Z,25.68
2019-03-27T22:21:09.919Z,24.47
2019-03-27T22:23:42.157Z,26.85
2019-03-27T22:26:14.467Z,26.95
2019-03-27T22:28:45.813Z,27.45
2019-03-27T22:31:17.253Z,28.30
2019-03-27T22:33:51.681Z,28.32
2019-03-27T22:36:22.838Z,32.35
2019-03-27T22:38:54.131Z,34.80
2019-03-27T22:41:25.992Z,32.60
2019-03-27T22:43:58.305Z,33.05
2019-03-27T22:46:31.037Z,32.25
2019-03-27T22:49:02.322Z,34.45
2019-03-27T22:51:33.632Z,33.98
2019-03-27T22:54:05.017Z,35.15
2019-03-27T22:56:36.301Z,37.58
2019-03-27T22:59:07.585Z,33.35
2019-03-27T23:01:44.658Z,34.23
2019-03-27T23:04:15.908Z,33.30
2019-03-27T23:06:47.204Z,34.03
2019-03-27T23:09:18.499Z,32.90
2019-03-27T23:11:49.797Z,32.30
2019-03-27T23:14:21.120Z,31.05
2019-03-27T23:16:52.438Z,30.00
2019-03-27T23:19:23.776Z,29.18
2019-03-27T23:21:56.148Z,29.23
2019-03-27T23:24:27.462Z,35.13
2019-03-27T23:26:58.766Z,31.50
2019-03-27T23:29:30.060Z,25.80
2019-03-27T23:32:01.435Z,26.33
2019-03-27T23:34:32.753Z,27.82
2019-03-27T23:37:04.058Z,25.60
2019-03-27T23:39:35.369Z,27.48
2019-03-27T23:42:06.698Z,28.20
2019-03-27T23:44:38.019Z,28.73
2019-03-27T23:47:09.317Z,33.10
2019-03-27T23:49:40.757Z,29.80
2019-03-27T23:52:12.316Z,26.90
2019-03-27T23:54:43.536Z,25.30
2019-03-27T23:57:14.838Z,21.62
2019-03-27T23:59:46.159Z,23.45
